Time;durP1;ratioP1;P1;durP2;ratioP2;P2;SDS_P1;SDS_P2;PMS_P1;PMS_P2;Temp;Humidity;BMP_temperature;BMP_pressure;BME280_temperature;BME280_humidity;BME280_pressure;Samples;Min_cycle;Max_cycle;Signal;HPM_P1;HPM_P2
2022/01/28 00:02:11;;;;;;;8.10;2.77;;;6.20;99.90;;;;;;5080770;28;20997;-78
2022/01/28 00:04:36;;;;;;;13.10;3.50;;;6.20;99.90;;;;;;5096900;28;20509;-78
2022/01/28 00:07:02;;;;;;;8.83;2.50;;;6.10;99.90;;;;;;5092951;22;20873;-76
2022/01/28 00:09:28;;;;;;;3.73;2.23;;;6.10;99.90;;;;;;5055119;28;20546;-76
2022/01/28 00:11:54;;;;;;;7.73;2.60;;;6.10;99.90;;;;;;5055532;28;20179;-76
2022/01/28 00:17:49;;;;;;;9.27;2.80;;;6.10;99.90;;;;;;5074625;28;20220;-76
2022/01/28 00:38:44;;;;;;;5.90;2.20;;;6.20;99.90;;;;;;5074503;28;20965;-76
2022/01/28 00:41:10;;;;;;;3.67;2.10;;;6.10;99.90;;;;;;5056458;28;20520;-76
2022/01/28 00:43:36;;;;;;;7.10;2.87;;;6.20;99.90;;;;;;5056043;28;20459;-76
2022/01/28 00:46:02;;;;;;;11.00;2.47;;;6.10;99.90;;;;;;5056103;28;20467;-76
2022/01/28 00:48:28;;;;;;;5.80;2.53;;;6.00;99.90;;;;;;5056023;28;20642;-76
2022/01/28 00:50:53;;;;;;;8.33;2.30;;;6.00;99.90;;;;;;5056518;28;20420;-76
2022/01/28 00:53:19;;;;;;;10.60;2.70;;;6.00;99.90;;;;;;5056212;28;20195;-76
2022/01/28 00:55:45;;;;;;;4.50;1.90;;;6.00;99.90;;;;;;5056153;28;20232;-76
2022/01/28 00:58:11;;;;;;;6.27;2.77;;;6.00;99.90;;;;;;5055886;28;20566;-76
2022/01/28 01:00:36;;;;;;;7.37;2.40;;;6.00;99.90;;;;;;5056136;28;20231;-75
2022/01/28 01:03:02;;;;;;;7.37;2.90;;;6.00;99.90;;;;;;5056176;28;20203;-76
2022/01/28 01:05:32;;;;;;;7.10;2.50;;;6.00;99.90;;;;;;5055882;28;20218;-76
2022/01/28 01:07:58;;;;;;;8.63;2.50;;;5.90;99.90;;;;;;5055649;28;20666;-76
2022/01/28 01:10:25;;;;;;;3.93;2.00;;;5.80;99.90;;;;;;5055820;28;20420;-76
2022/01/28 01:12:51;;;;;;;9.53;1.83;;;5.70;99.90;;;;;;5055692;28;20523;-75
2022/01/28 01:15:21;;;;;;;7.17;2.03;;;5.70;99.90;;;;;;5055705;28;21017;-76
2022/01/28 01:18:38;;;;;;;8.37;2.20;;;5.60;99.90;;;;;;5055478;28;20800;-76
2022/01/28 01:25:28;;;;;;;7.87;4.23;;;5.50;99.90;;;;;;5073487;28;20449;-76
2022/01/28 01:27:56;;;;;;;13.57;2.07;;;5.50;99.90;;;;;;5055216;28;20174;-76
2022/01/28 01:30:24;;;;;;;5.23;2.40;;;5.40;99.90;;;;;;5055625;28;20423;-76
2022/01/28 01:32:50;;;;;;;7.53;2.43;;;5.40;99.90;;;;;;5055379;28;20440;-76
2022/01/28 01:35:16;;;;;;;6.47;2.37;;;5.40;99.90;;;;;;5055495;28;20432;-76
2022/01/28 01:37:42;;;;;;;6.60;1.97;;;5.40;99.90;;;;;;5055030;28;20235;-76
2022/01/28 01:40:08;;;;;;;6.00;1.90;;;5.40;99.90;;;;;;5055211;28;20185;-75
2022/01/28 01:42:48;;;;;;;7.90;2.60;;;5.30;99.90;;;;;;5055141;28;20204;-76
2022/01/28 01:53:20;;;;;;;8.90;2.43;;;5.20;99.90;;;;;;5073298;28;20437;-76
2022/01/28 01:55:47;;;;;;;11.17;2.10;;;5.10;99.90;;;;;;5054324;28;20423;-75
2022/01/28 01:58:13;;;;;;;6.87;2.77;;;5.10;99.90;;;;;;5054627;28;20264;-76
2022/01/28 02:00:39;;;;;;;5.10;2.30;;;5.10;99.90;;;;;;5054935;28;20415;-75
2022/01/28 02:03:05;;;;;;;7.00;2.87;;;5.10;99.90;;;;;;5054651;28;20444;-76
2022/01/28 02:05:31;;;;;;;7.40;2.60;;;5.10;99.90;;;;;;5054693;28;20212;-76
2022/01/28 02:08:05;;;;;;;5.13;2.20;;;5.10;99.90;;;;;;5054778;28;20972;-76
2022/01/28 02:10:33;;;;;;;5.03;2.20;;;5.10;99.90;;;;;;5054789;28;20184;-76
2022/01/28 02:12:58;;;;;;;6.50;2.40;;;5.10;99.90;;;;;;5054431;28;21029;-76
2022/01/28 02:15:25;;;;;;;10.70;3.40;;;5.20;99.90;;;;;;5054601;28;20523;-76
2022/01/28 02:17:50;;;;;;;4.33;1.77;;;5.10;99.90;;;;;;5054216;28;20426;-76
2022/01/28 02:20:26;;;;;;;3.43;2.03;;;5.00;99.90;;;;;;5054738;28;20421;-76
2022/01/28 02:22:55;;;;;;;6.10;1.80;;;5.10;99.90;;;;;;5054493;28;20230;-76
2022/01/28 02:25:26;;;;;;;5.90;2.10;;;5.00;99.90;;;;;;5054357;28;20467;-76
2022/01/28 02:27:53;;;;;;;5.50;2.13;;;5.00;99.90;;;;;;5054206;28;20418;-76
2022/01/28 02:30:18;;;;;;;6.47;2.60;;;5.00;99.90;;;;;;5054192;28;20455;-76
2022/01/28 02:32:47;;;;;;;10.43;2.20;;;5.10;99.90;;;;;;5054284;28;20471;-76
2022/01/28 02:35:13;;;;;;;8.10;2.17;;;5.10;99.90;;;;;;5054388;28;20423;-76
2022/01/28 02:37:39;;;;;;;7.77;2.07;;;5.10;99.90;;;;;;5053928;28;20769;-76
2022/01/28 02:40:06;;;;;;;7.10;2.53;;;5.10;99.90;;;;;;5054215;28;20180;-76
2022/01/28 02:43:27;;;;;;;6.53;1.93;;;5.10;99.90;;;;;;5053979;28;20431;-76
2022/01/28 02:45:32;;;;;;;7.47;1.97;;;5.10;99.90;;;;;;5060940;28;20474;-76
2022/01/28 02:48:04;;;;;;;9.00;2.23;;;5.10;99.90;;;;;;5053938;28;20791;-76
2022/01/28 02:50:37;;;;;;;7.40;2.40;;;5.00;99.90;;;;;;5054389;28;20420;-76
2022/01/28 02:53:07;;;;;;;3.50;2.20;;;4.90;99.90;;;;;;5054026;28;20808;-76
2022/01/28 02:55:38;;;;;;;11.17;3.50;;;4.80;99.90;;;;;;5053978;28;20978;-76
2022/01/28 02:58:17;;;;;;;8.53;2.00;;;4.80;99.90;;;;;;5053896;28;20522;-76
2022/01/28 03:00:43;;;;;;;5.07;2.30;;;4.80;99.90;;;;;;5053934;28;20494;-76
2022/01/28 03:03:09;;;;;;;4.20;1.90;;;4.80;99.90;;;;;;5054198;28;21046;-76
2022/01/28 03:05:35;;;;;;;10.33;2.70;;;4.70;99.90;;;;;;5053517;28;20524;-76
2022/01/28 03:08:04;;;;;;;16.53;2.97;;;4.80;99.90;;;;;;5053491;28;20444;-76
2022/01/28 03:13:29;;;;;;;8.57;2.07;;;4.80;99.90;;;;;;5071893;28;20423;-76
2022/01/28 03:15:52;;;;;;;6.17;3.00;;;4.90;99.90;;;;;;5070217;28;20423;-76
2022/01/28 03:18:22;;;;;;;7.70;2.17;;;4.90;99.90;;;;;;5053458;28;20571;-76
2022/01/28 03:23:17;;;;;;;10.70;1.73;;;5.00;99.90;;;;;;5071694;28;20803;-76
2022/01/28 03:25:44;;;;;;;6.73;3.50;;;5.00;99.90;;;;;;5053471;28;20463;-76
2022/01/28 03:28:12;;;;;;;9.93;2.47;;;5.00;99.90;;;;;;5053443;28;20427;-76
2022/01/28 03:30:38;;;;;;;8.17;2.60;;;5.00;99.90;;;;;;5053395;28;20451;-76
2022/01/28 03:33:04;;;;;;;7.00;2.50;;;5.10;99.90;;;;;;5053439;28;20464;-76
2022/01/28 03:35:31;;;;;;;8.87;2.50;;;5.20;99.90;;;;;;5053412;28;20186;-76
2022/01/28 03:38:02;;;;;;;6.67;2.30;;;5.10;99.90;;;;;;5053255;28;20416;-76
2022/01/28 03:40:35;;;;;;;5.83;1.77;;;5.20;99.90;;;;;;5053542;28;20859;-76
2022/01/28 03:43:02;;;;;;;6.43;1.63;;;5.20;99.90;;;;;;5053510;28;20525;-76
2022/01/28 03:45:28;;;;;;;7.60;2.50;;;5.20;99.90;;;;;;5053304;28;20811;-76
2022/01/28 03:47:54;;;;;;;5.90;2.03;;;5.20;99.90;;;;;;5053274;28;20416;-76
2022/01/28 03:50:20;;;;;;;5.93;2.07;;;5.20;99.90;;;;;;5053328;28;20417;-76
2022/01/28 03:52:45;;;;;;;7.80;2.57;;;5.20;99.90;;;;;;5053329;28;20475;-75
2022/01/28 03:55:11;;;;;;;4.43;1.90;;;5.20;99.90;;;;;;5053290;28;21026;-76
2022/01/28 03:57:37;;;;;;;8.73;2.17;;;5.20;99.90;;;;;;5053115;28;20185;-76
2022/01/28 04:00:07;;;;;;;6.83;2.70;;;5.10;99.90;;;;;;5053398;28;20423;-76
2022/01/28 04:02:36;;;;;;;6.03;1.80;;;5.10;99.90;;;;;;5053256;28;20434;-76
2022/01/28 04:12:57;;;;;;;6.63;1.70;;;5.00;99.90;;;;;;5071492;28;20434;-76
2022/01/28 04:15:37;;;;;;;6.27;2.67;;;5.00;99.90;;;;;;5053194;28;20512;-76
2022/01/28 04:18:03;;;;;;;5.70;1.93;;;5.00;99.90;;;;;;5053120;28;20213;-76
2022/01/28 04:20:32;;;;;;;7.57;2.27;;;5.00;99.90;;;;;;5055891;28;20416;-76
2022/01/28 04:22:58;;;;;;;6.77;2.33;;;5.00;99.90;;;;;;5056714;28;20452;-76
2022/01/28 04:25:23;;;;;;;6.73;2.70;;;5.10;99.90;;;;;;5056709;28;20816;-76
2022/01/28 04:27:49;;;;;;;16.00;5.23;;;5.10;99.90;;;;;;5056531;28;20421;-76
2022/01/28 04:30:15;;;;;;;6.80;2.90;;;5.10;99.90;;;;;;5056740;28;20177;-76
2022/01/28 04:32:41;;;;;;;6.27;2.30;;;5.10;99.90;;;;;;5056461;28;20619;-76
2022/01/28 04:35:07;;;;;;;5.97;2.50;;;5.00;99.90;;;;;;5056491;28;20185;-76
2022/01/28 04:40:12;;;;;;;4.93;2.30;;;5.00;99.90;;;;;;5074483;28;20480;-76
2022/01/28 04:50:34;;;;;;;6.73;2.03;;;4.90;99.90;;;;;;5074559;28;20701;-76
2022/01/28 04:53:40;;;;;;;7.53;2.50;;;4.90;99.90;;;;;;5056266;28;20441;-76
2022/01/28 04:56:05;;;;;;;9.13;2.40;;;4.90;99.90;;;;;;5071814;28;20513;-76
2022/01/28 05:04:15;;;;;;;5.77;2.10;;;4.80;99.90;;;;;;5074031;28;20438;-76
2022/01/28 05:13:01;;;;;;;12.83;2.63;;;4.80;99.90;;;;;;5074007;28;20464;-76
2022/01/28 05:24:03;;;;;;;9.23;2.53;;;4.80;99.90;;;;;;5073920;28;21004;-76
2022/01/28 05:26:24;;;;;;;6.80;2.27;;;4.80;99.90;;;;;;5073252;28;20506;-76
2022/01/28 05:28:51;;;;;;;4.23;1.97;;;4.70;99.90;;;;;;5055790;28;20428;-76
2022/01/28 05:31:19;;;;;;;4.00;1.70;;;4.80;99.90;;;;;;5054576;28;20436;-76
2022/01/28 05:33:49;;;;;;;8.67;2.30;;;4.70;99.90;;;;;;5055298;28;20466;-76
2022/01/28 05:36:15;;;;;;;6.30;2.10;;;4.70;99.90;;;;;;5055328;28;20472;-76
2022/01/28 05:38:40;;;;;;;9.03;2.57;;;4.60;99.90;;;;;;5055185;28;20426;-76
2022/01/28 05:41:06;;;;;;;12.27;2.10;;;4.60;99.90;;;;;;5055263;28;20418;-76
2022/01/28 05:43:32;;;;;;;6.23;2.53;;;4.50;99.90;;;;;;5055209;28;20769;-76
2022/01/28 05:45:58;;;;;;;7.80;2.10;;;4.40;99.90;;;;;;5054996;28;20213;-76
2022/01/28 05:48:23;;;;;;;5.60;1.80;;;4.40;99.90;;;;;;5054856;28;20182;-76
2022/01/28 05:50:49;;;;;;;8.30;2.30;;;4.30;99.90;;;;;;5055032;28;20180;-76
2022/01/28 05:53:15;;;;;;;8.13;1.93;;;4.30;99.90;;;;;;5055243;28;20290;-76
2022/01/28 05:55:41;;;;;;;9.73;2.50;;;4.30;99.90;;;;;;5055081;28;20705;-76
2022/01/28 05:58:07;;;;;;;4.43;2.53;;;4.30;99.90;;;;;;5054862;28;20183;-76
2022/01/28 06:00:33;;;;;;;6.97;2.60;;;4.30;99.90;;;;;;5054861;28;20244;-76
2022/01/28 06:02:58;;;;;;;15.37;2.63;;;4.40;99.90;;;;;;5054706;28;20321;-76
2022/01/28 06:05:30;;;;;;;9.40;2.47;;;4.30;99.90;;;;;;5054623;28;20208;-76
2022/01/28 06:08:00;;;;;;;11.00;3.37;;;4.40;99.90;;;;;;5067968;22;20227;-79
2022/01/28 06:10:26;;;;;;;7.10;2.40;;;4.40;99.90;;;;;;5076684;28;21010;-78
2022/01/28 06:12:52;;;;;;;14.23;3.10;;;4.40;99.90;;;;;;5058507;28;20819;-78
2022/01/28 06:15:18;;;;;;;7.67;3.10;;;4.40;99.90;;;;;;5058870;28;20477;-79
2022/01/28 06:17:44;;;;;;;9.60;2.40;;;4.40;99.90;;;;;;5059333;28;20491;-79
2022/01/28 06:20:12;;;;;;;10.50;2.53;;;4.30;99.90;;;;;;5077827;28;20167;-78
2022/01/28 06:22:42;;;;;;;6.63;2.80;;;4.30;99.90;;;;;;5057352;28;20184;-78
2022/01/28 06:25:09;;;;;;;9.73;3.20;;;4.40;99.90;;;;;;5057241;28;20454;-78
2022/01/28 06:27:35;;;;;;;7.93;3.27;;;4.40;99.90;;;;;;5075616;28;20508;-78
2022/01/28 06:30:04;;;;;;;12.40;3.33;;;4.40;99.90;;;;;;5076090;28;20405;-79
2022/01/28 06:32:33;;;;;;;13.80;3.20;;;4.30;99.90;;;;;;5057628;28;20451;-78
2022/01/28 06:35:07;;;;;;;7.03;2.80;;;4.30;99.90;;;;;;5077070;28;20412;-79
2022/01/28 06:37:34;;;;;;;10.70;3.17;;;4.30;99.90;;;;;;5077011;28;20802;-78
2022/01/28 06:39:59;;;;;;;10.47;2.53;;;4.30;99.90;;;;;;5076981;28;20410;-78
2022/01/28 06:42:25;;;;;;;7.30;2.77;;;4.30;99.90;;;;;;5075380;28;20420;-78
2022/01/28 06:44:50;;;;;;;5.70;2.43;;;4.20;99.90;;;;;;5057304;28;20255;-78
2022/01/28 06:47:16;;;;;;;7.70;3.13;;;4.20;99.90;;;;;;5075078;28;20214;-78
2022/01/28 06:49:42;;;;;;;11.13;3.30;;;4.30;99.90;;;;;;5075272;28;20171;-78
2022/01/28 06:52:07;;;;;;;6.90;3.37;;;4.30;99.90;;;;;;5075184;28;20194;-78
2022/01/28 06:54:33;;;;;;;6.87;3.27;;;4.20;99.90;;;;;;5075292;28;20405;-79
2022/01/28 06:56:59;;;;;;;7.50;3.00;;;4.20;99.90;;;;;;5056379;28;20179;-78
2022/01/28 06:59:24;;;;;;;9.80;3.43;;;4.20;99.90;;;;;;5075226;28;20254;-78
2022/01/28 07:01:50;;;;;;;10.00;4.30;;;4.10;99.90;;;;;;5057353;28;20529;-78
2022/01/28 07:04:16;;;;;;;6.70;2.80;;;4.20;99.90;;;;;;5057438;28;20182;-78
2022/01/28 07:06:42;;;;;;;14.93;3.43;;;4.20;99.90;;;;;;5056840;28;20556;-78
2022/01/28 07:09:09;;;;;;;9.27;2.87;;;4.30;99.90;;;;;;5057629;28;20471;-79
2022/01/28 07:11:34;;;;;;;11.43;2.30;;;4.30;99.90;;;;;;5057315;28;20180;-78
2022/01/28 07:14:00;;;;;;;11.80;4.20;;;4.30;99.90;;;;;;5074812;28;20454;-79
2022/01/28 07:16:25;;;;;;;10.87;4.67;;;4.30;99.90;;;;;;5056730;28;20186;-79
2022/01/28 07:18:51;;;;;;;6.60;3.10;;;4.30;99.90;;;;;;5056715;28;20303;-78
2022/01/28 07:21:16;;;;;;;8.13;3.00;;;4.30;99.90;;;;;;5056470;28;20544;-78
2022/01/28 07:23:42;;;;;;;10.10;3.03;;;4.30;99.90;;;;;;5074825;28;20206;-78
2022/01/28 07:26:08;;;;;;;8.40;2.87;;;4.30;99.90;;;;;;5074846;28;20210;-78
2022/01/28 07:28:35;;;;;;;5.27;2.40;;;4.40;99.90;;;;;;5074568;28;20435;-78
2022/01/28 07:31:01;;;;;;;5.10;2.73;;;4.30;99.90;;;;;;5058058;28;20203;-78
2022/01/28 07:33:26;;;;;;;5.20;3.20;;;4.40;99.90;;;;;;5077060;28;20414;-78
2022/01/28 07:35:52;;;;;;;9.47;2.93;;;4.40;99.90;;;;;;5058983;28;20642;-78
2022/01/28 07:38:18;;;;;;;11.27;2.57;;;4.40;99.90;;;;;;5058627;28;20209;-78
2022/01/28 07:40:43;;;;;;;7.53;2.77;;;4.40;99.90;;;;;;5057623;28;20207;-78
2022/01/28 07:43:09;;;;;;;7.53;2.70;;;4.40;99.90;;;;;;5058193;28;20216;-78
2022/01/28 07:45:34;;;;;;;6.53;2.80;;;4.40;99.90;;;;;;5076549;28;20264;-78
2022/01/28 07:48:00;;;;;;;8.00;3.20;;;4.50;99.90;;;;;;5058025;28;20224;-78
2022/01/28 07:50:26;;;;;;;8.03;3.10;;;4.50;99.90;;;;;;5057309;28;20182;-78
2022/01/28 07:52:51;;;;;;;7.70;2.70;;;4.50;99.90;;;;;;5058011;28;20598;-78
2022/01/28 07:55:17;;;;;;;6.87;2.83;;;4.50;99.90;;;;;;5077942;28;20205;-78
2022/01/28 07:57:43;;;;;;;5.37;3.07;;;4.60;99.90;;;;;;5079000;28;20338;-79
2022/01/28 08:00:11;;;;;;;6.53;3.20;;;4.60;99.90;;;;;;5061405;28;20215;-78
2022/01/28 08:02:36;;;;;;;26.70;4.40;;;4.50;99.90;;;;;;5079717;28;20459;-78
2022/01/28 08:05:03;;;;;;;8.63;3.53;;;4.60;99.90;;;;;;5061706;28;20466;-78
2022/01/28 08:07:28;;;;;;;8.53;4.10;;;4.60;99.90;;;;;;5060942;28;20212;-79
2022/01/28 08:09:54;;;;;;;7.07;3.33;;;4.80;99.90;;;;;;5061432;28;20439;-78
2022/01/28 08:12:21;;;;;;;7.63;4.20;;;4.80;99.90;;;;;;5079071;28;20722;-78
2022/01/28 08:14:46;;;;;;;7.70;3.30;;;5.00;99.90;;;;;;5060534;28;20213;-78
2022/01/28 08:17:12;;;;;;;12.10;3.70;;;5.10;99.90;;;;;;5061254;28;20436;-78
2022/01/28 08:19:38;;;;;;;10.43;3.77;;;5.20;99.90;;;;;;5060611;28;20185;-78
2022/01/28 08:22:04;;;;;;;8.17;3.60;;;5.30;99.90;;;;;;5060384;28;20193;-79
2022/01/28 08:24:30;;;;;;;9.10;3.93;;;5.40;99.90;;;;;;5060967;28;20460;-78
2022/01/28 08:26:55;;;;;;;9.43;3.20;;;5.60;99.90;;;;;;5060732;28;20424;-79
2022/01/28 08:29:21;;;;;;;13.80;5.00;;;5.70;99.90;;;;;;5060442;28;20182;-78
2022/01/28 08:31:47;;;;;;;9.03;3.67;;;5.90;99.90;;;;;;5061498;28;20339;-79
2022/01/28 08:34:13;;;;;;;8.70;3.17;;;6.00;99.90;;;;;;5061804;28;20744;-79
2022/01/28 08:36:39;;;;;;;8.07;4.57;;;6.10;99.90;;;;;;5079267;28;20178;-78
2022/01/28 08:39:06;;;;;;;14.90;3.70;;;6.20;99.90;;;;;;5058075;28;20493;-79
2022/01/28 08:41:34;;;;;;;9.30;3.50;;;6.20;99.90;;;;;;5058334;28;20425;-78
2022/01/28 08:44:00;;;;;;;13.70;4.03;;;6.30;99.90;;;;;;5076384;28;20424;-78
2022/01/28 08:46:26;;;;;;;13.43;4.60;;;6.50;99.90;;;;;;5058228;28;20469;-79
2022/01/28 08:48:51;;;;;;;14.60;4.23;;;6.50;99.90;;;;;;5075737;28;20198;-78
2022/01/28 08:51:17;;;;;;;9.57;4.07;;;6.50;99.90;;;;;;5058039;28;20182;-78
2022/01/28 08:53:42;;;;;;;7.90;4.00;;;6.70;99.90;;;;;;5075758;28;20236;-78
2022/01/28 08:56:08;;;;;;;8.47;4.40;;;6.70;99.90;;;;;;5058013;28;20273;-78
2022/01/28 08:58:35;;;;;;;5.30;3.73;;;6.80;99.90;;;;;;5075481;28;20203;-78
2022/01/28 09:01:01;;;;;;;12.90;3.90;;;6.90;99.90;;;;;;5057788;28;20433;-78
2022/01/28 09:03:26;;;;;;;8.57;5.00;;;6.80;99.90;;;;;;5057773;28;20859;-78
2022/01/28 09:05:52;;;;;;;8.57;4.70;;;6.80;99.90;;;;;;5074975;28;20214;-78
2022/01/28 09:08:18;;;;;;;12.83;4.67;;;6.60;99.90;;;;;;5081180;28;20211;-79
2022/01/28 09:10:57;;;;;;;7.90;4.77;;;6.60;99.90;;;;;;5088060;28;20205;-79
2022/01/28 09:13:37;;;;;;;8.70;5.57;;;6.60;99.90;;;;;;5064443;28;20228;-79
2022/01/28 09:16:03;;;;;;;5.97;3.63;;;6.50;99.90;;;;;;5065418;28;20432;-79
2022/01/28 09:18:29;;;;;;;9.40;4.20;;;6.60;99.90;;;;;;5082182;28;20462;-79
2022/01/28 09:20:55;;;;;;;11.30;6.27;;;6.40;99.90;;;;;;5082785;28;20436;-79
2022/01/28 09:23:21;;;;;;;11.23;5.83;;;6.30;99.90;;;;;;5082640;28;20244;-79
2022/01/28 09:25:46;;;;;;;8.40;4.00;;;6.30;99.90;;;;;;5081944;28;20465;-79
2022/01/28 09:28:12;;;;;;;9.83;4.67;;;6.30;99.90;;;;;;5063690;28;20203;-79
2022/01/28 09:30:38;;;;;;;11.20;5.60;;;6.20;99.90;;;;;;5081123;28;20190;-79
2022/01/28 09:33:04;;;;;;;12.20;4.80;;;6.20;99.90;;;;;;5081035;28;20601;-79
2022/01/28 09:35:30;;;;;;;17.03;6.10;;;6.20;99.90;;;;;;5062445;28;20206;-79
2022/01/28 09:37:55;;;;;;;12.40;5.23;;;6.30;99.90;;;;;;5077068;28;20213;-78
2022/01/28 09:40:21;;;;;;;9.73;5.50;;;6.40;99.90;;;;;;5056063;28;20211;-78
2022/01/28 09:42:48;;;;;;;11.60;5.93;;;6.50;99.90;;;;;;5073710;28;20193;-78
2022/01/28 09:45:16;;;;;;;10.30;5.93;;;6.50;99.90;;;;;;5055528;28;20467;-78
2022/01/28 09:47:42;;;;;;;12.20;4.67;;;6.50;99.90;;;;;;5073301;28;20520;-78
2022/01/28 09:50:08;;;;;;;10.20;6.23;;;6.70;99.90;;;;;;5055514;28;20514;-78
2022/01/28 09:52:34;;;;;;;8.07;5.07;;;6.70;99.90;;;;;;5073266;28;20190;-78
2022/01/28 09:55:01;;;;;;;11.30;6.20;;;6.70;99.90;;;;;;5055406;28;20417;-78
2022/01/28 09:57:26;;;;;;;8.30;5.23;;;6.80;99.90;;;;;;5072701;28;20437;-78
2022/01/28 09:59:52;;;;;;;11.77;6.23;;;6.80;99.90;;;;;;5073069;28;20430;-78
2022/01/28 10:02:18;;;;;;;11.40;5.37;;;6.90;99.90;;;;;;5057502;28;20193;-79
2022/01/28 10:04:44;;;;;;;11.90;5.27;;;7.00;99.90;;;;;;5061054;28;20318;-79
2022/01/28 10:07:17;;;;;;;10.97;5.57;;;7.00;99.90;;;;;;5060362;28;20206;-79
2022/01/28 10:09:57;;;;;;;8.50;5.40;;;7.00;99.90;;;;;;5060886;28;20497;-78
2022/01/28 10:12:40;;;;;;;18.60;5.43;;;7.00;99.90;;;;;;5060736;28;20467;-79
2022/01/28 10:15:17;;;;;;;10.17;5.00;;;7.10;99.90;;;;;;5060487;28;20459;-79
2022/01/28 10:17:54;;;;;;;8.40;4.40;;;7.20;99.90;;;;;;5059313;28;20448;-79
2022/01/28 10:20:21;;;;;;;7.97;4.23;;;7.30;99.90;;;;;;5078714;28;20475;-79
2022/01/28 10:22:57;;;;;;;11.47;5.17;;;7.40;99.90;;;;;;5060357;28;20433;-78
2022/01/28 10:25:31;;;;;;;16.47;5.00;;;7.50;99.90;;;;;;5078227;28;20453;-79
2022/01/28 10:28:11;;;;;;;11.70;5.10;;;7.60;99.90;;;;;;5059365;28;20481;-79
2022/01/28 10:30:41;;;;;;;11.37;4.93;;;7.70;99.90;;;;;;5078174;28;20421;-79
2022/01/28 10:33:11;;;;;;;7.97;5.03;;;7.90;99.90;;;;;;5059428;28;20775;-79
2022/01/28 10:35:37;;;;;;;11.03;3.60;;;8.20;99.90;;;;;;5058995;28;20421;-79
2022/01/28 10:38:03;;;;;;;6.67;3.73;;;8.60;99.90;;;;;;5059350;28;21042;-79
2022/01/28 10:40:29;;;;;;;10.70;4.23;;;8.80;99.90;;;;;;5059604;28;20508;-79
2022/01/28 10:42:55;;;;;;;10.70;3.60;;;8.90;99.90;;;;;;5077660;28;20450;-79
2022/01/28 10:45:28;;;;;;;6.80;3.33;;;9.00;99.90;;;;;;5059246;28;20203;-78
2022/01/28 10:47:59;;;;;;;11.80;4.20;;;9.30;99.90;;;;;;5077265;28;20225;-79
2022/01/28 10:50:25;;;;;;;10.63;4.30;;;9.60;99.90;;;;;;5077851;28;20503;-79
2022/01/28 10:53:08;;;;;;;9.50;4.17;;;9.70;99.90;;;;;;5059101;28;20422;-79
2022/01/28 10:55:37;;;;;;;11.67;4.13;;;9.70;99.90;;;;;;5077508;28;20229;-79
2022/01/28 10:58:05;;;;;;;10.40;3.93;;;10.00;99.90;;;;;;5058842;28;20442;-78
2022/01/28 11:00:34;;;;;;;11.80;4.17;;;9.70;99.90;;;;;;5058887;28;20444;-79
2022/01/28 11:03:06;;;;;;;8.50;3.30;;;9.50;99.90;;;;;;5058473;28;20929;-78
2022/01/28 11:05:33;;;;;;;6.57;3.63;;;9.60;99.90;;;;;;5058171;28;20502;-79
2022/01/28 11:08:00;;;;;;;8.17;3.67;;;9.80;99.90;;;;;;5058666;28;20457;-79
2022/01/28 11:10:27;;;;;;;11.97;4.40;;;9.90;99.90;;;;;;5058358;28;20429;-79
2022/01/28 11:12:53;;;;;;;6.50;3.70;;;9.80;99.90;;;;;;5057703;28;20477;-78
2022/01/28 11:15:20;;;;;;;9.87;3.37;;;9.90;99.90;;;;;;5076433;28;20413;-79
2022/01/28 11:17:49;;;;;;;9.93;3.63;;;9.90;99.90;;;;;;5076238;28;20436;-78
2022/01/28 11:20:19;;;;;;;5.77;2.67;;;9.90;99.90;;;;;;5058416;28;20428;-78
2022/01/28 11:23:05;;;;;;;13.53;4.13;;;9.90;99.90;;;;;;5057851;28;20414;-78
2022/01/28 11:25:42;;;;;;;13.27;3.80;;;10.00;99.90;;;;;;5046616;28;21018;-79
2022/01/28 11:28:13;;;;;;;5.47;2.80;;;11.10;99.90;;;;;;5075789;28;20425;-78
2022/01/28 11:30:49;;;;;;;7.10;3.10;;;13.70;99.90;;;;;;5061131;28;20678;-79
2022/01/28 11:33:15;;;;;;;8.67;3.67;;;13.90;99.90;;;;;;5062010;28;20416;-79
2022/01/28 11:35:49;;;;;;;11.53;4.17;;;16.10;99.90;;;;;;5060800;28;20905;-79
2022/01/28 11:38:27;;;;;;;8.00;3.47;;;17.40;99.90;;;;;;5079252;28;20959;-79
2022/01/28 11:41:01;;;;;;;10.23;4.67;;;15.90;99.90;;;;;;5060728;28;20421;-79
2022/01/28 11:43:31;;;;;;;9.17;4.13;;;14.60;99.90;;;;;;5060724;28;20429;-79
2022/01/28 11:46:07;;;;;;;11.63;4.23;;;13.40;99.90;;;;;;5078694;28;20993;-79
2022/01/28 11:48:51;;;;;;;11.63;4.80;;;12.60;99.90;;;;;;5081587;28;20448;-79
2022/01/28 11:51:17;;;;;;;10.20;3.93;;;12.20;99.90;;;;;;5081318;28;20405;-79
2022/01/28 11:53:55;;;;;;;5.67;3.90;;;12.10;99.90;;;;;;5081152;28;20401;-79
2022/01/28 11:56:29;;;;;;;8.17;4.70;;;12.00;99.90;;;;;;5079996;28;20434;-79
2022/01/28 11:58:58;;;;;;;5.93;4.00;;;12.40;99.90;;;;;;5080096;28;20474;-79
2022/01/28 12:01:38;;;;;;;9.67;4.10;;;12.80;99.90;;;;;;5080138;28;20444;-79
2022/01/28 12:04:30;;;;;;;7.73;3.83;;;12.60;99.90;;;;;;5061254;28;20485;-79
2022/01/28 12:07:03;;;;;;;7.97;3.43;;;12.20;99.90;;;;;;5061358;28;20425;-79
2022/01/28 12:09:30;;;;;;;6.20;3.00;;;13.30;99.90;;;;;;5119335;22;20989;-82
2022/01/28 12:11:58;;;;;;;9.57;2.80;;;13.80;99.90;;;;;;5085732;28;20420;-82
2022/01/28 12:17:36;;;;;;;10.40;3.03;;;13.70;99.90;;;;;;5104827;28;20417;-82
2022/01/28 12:20:11;;;;;;;5.90;3.00;;;12.80;99.90;;;;;;5086416;28;20429;-83
2022/01/28 12:22:59;;;;;;;6.27;3.20;;;12.10;99.90;;;;;;5087533;28;20432;-82
2022/01/28 12:25:50;;;;;;;9.97;3.17;;;11.70;99.90;;;;;;5086759;28;20489;-82
2022/01/28 12:28:32;;;;;;;6.43;2.73;;;12.20;99.90;;;;;;5078095;28;20524;-82
2022/01/28 12:31:27;;;;;;;6.60;2.13;;;12.00;99.90;;;;;;5087856;28;20450;-82
2022/01/28 12:33:55;;;;;;;11.93;2.90;;;12.90;99.90;;;;;;5104922;28;20428;-81
2022/01/28 12:36:30;;;;;;;7.37;2.87;;;14.20;99.90;;;;;;5087485;28;20430;-82
2022/01/28 12:39:20;;;;;;;10.17;2.70;;;14.90;99.90;;;;;;5088547;28;20452;-82
2022/01/28 12:41:55;;;;;;;6.00;2.20;;;16.00;99.90;;;;;;5087695;28;20427;-82
2022/01/28 12:44:20;;;;;;;7.33;3.20;;;16.00;99.90;;;;;;5089102;28;20438;-82
2022/01/28 12:47:09;;;;;;;9.37;2.43;;;14.60;99.90;;;;;;5089766;28;20455;-82
2022/01/28 12:49:37;;;;;;;6.77;2.23;;;13.40;99.90;;;;;;5089442;28;20716;-82
2022/01/28 12:52:06;;;;;;;4.00;1.70;;;12.60;99.90;;;;;;5090588;28;20412;-81
2022/01/28 12:54:41;;;;;;;4.33;1.40;;;11.90;99.90;;;;;;5090114;28;20416;-81
2022/01/28 12:57:12;;;;;;;6.50;2.43;;;11.40;99.90;;;;;;5089052;28;20416;-81
2022/01/28 12:59:39;;;;;;;7.70;2.37;;;10.90;99.90;;;;;;5107427;28;20444;-82
2022/01/28 13:02:05;;;;;;;7.93;2.33;;;10.70;99.90;;;;;;5108184;28;20966;-81
2022/01/28 13:04:50;;;;;;;5.87;1.50;;;10.70;99.90;;;;;;5108722;28;20730;-81
2022/01/28 13:10:01;;;;;;;4.43;2.23;;;9.90;99.90;;;;;;5108538;28;20450;-82
2022/01/28 13:12:31;;;;;;;12.93;2.53;;;10.30;99.90;;;;;;5107036;28;20432;-81
2022/01/28 13:15:12;;;;;;;8.90;1.77;;;10.20;99.90;;;;;;5089091;28;20196;-81
2022/01/28 13:17:39;;;;;;;5.90;2.97;;;9.90;99.90;;;;;;5088827;28;20487;-81
2022/01/28 13:20:09;;;;;;;9.17;2.67;;;10.10;99.90;;;;;;5090084;28;20420;-82
2022/01/28 13:22:36;;;;;;;7.93;2.40;;;10.20;99.90;;;;;;5106946;28;20416;-81
2022/01/28 13:25:15;;;;;;;7.73;2.20;;;10.30;99.90;;;;;;5088253;28;20509;-82
2022/01/28 13:27:44;;;;;;;9.77;2.50;;;10.30;99.90;;;;;;5087450;28;20459;-81
2022/01/28 13:30:15;;;;;;;5.17;2.10;;;10.50;99.90;;;;;;5106147;28;20406;-81
2022/01/28 13:32:44;;;;;;;4.60;2.10;;;10.70;99.90;;;;;;5105587;28;20404;-81
2022/01/28 13:35:24;;;;;;;6.93;2.73;;;10.90;99.90;;;;;;5105291;28;20480;-81
2022/01/28 13:37:51;;;;;;;6.83;2.80;;;11.60;99.90;;;;;;5106753;28;20419;-82
2022/01/28 13:40:29;;;;;;;6.70;2.63;;;12.00;99.90;;;;;;5087758;28;20446;-81
2022/01/28 13:43:11;;;;;;;5.67;3.17;;;11.90;99.90;;;;;;5105860;28;20478;-81
2022/01/28 13:45:43;;;;;;;8.33;3.27;;;11.50;99.90;;;;;;5104841;28;20459;-82
2022/01/28 13:48:13;;;;;;;11.47;3.13;;;11.30;99.90;;;;;;5104147;28;20428;-82
2022/01/28 13:50:42;;;;;;;7.03;3.43;;;11.50;99.90;;;;;;5104038;28;20436;-81
2022/01/28 13:56:09;;;;;;;5.10;3.27;;;11.50;99.90;;;;;;5104764;28;20435;-83
2022/01/28 13:58:53;;;;;;;10.03;4.80;;;11.40;99.90;;;;;;5085980;28;20470;-81
2022/01/28 14:01:25;;;;;;;7.70;3.80;;;11.40;99.90;;;;;;5104983;28;20428;-81
2022/01/28 14:04:00;;;;;;;9.30;3.70;;;11.70;99.90;;;;;;5088938;28;20416;-82
2022/01/28 14:06:31;;;;;;;8.07;3.90;;;11.60;99.90;;;;;;5106485;28;20487;-81
2022/01/28 14:09:07;;;;;;;10.47;5.33;;;11.50;99.90;;;;;;5088862;28;20477;-81
2022/01/28 14:11:39;;;;;;;10.40;3.27;;;11.20;99.90;;;;;;5105650;28;20416;-81
2022/01/28 14:14:26;;;;;;;8.53;3.60;;;11.10;99.90;;;;;;5107124;28;20401;-81
2022/01/28 14:17:00;;;;;;;9.90;3.47;;;10.90;99.90;;;;;;5087916;28;20452;-81
2022/01/28 14:19:36;;;;;;;7.83;3.43;;;10.90;99.90;;;;;;5106600;28;20431;-81
2022/01/28 14:22:03;;;;;;;7.20;4.00;;;10.90;99.90;;;;;;5088770;28;20421;-81
2022/01/28 14:24:31;;;;;;;6.93;3.70;;;10.90;99.90;;;;;;5109286;28;20408;-81
2022/01/28 14:32:05;;;;;;;6.30;3.03;;;10.40;99.90;;;;;;5107075;28;20807;-81
2022/01/28 14:34:31;;;;;;;9.67;3.90;;;10.30;99.90;;;;;;5108076;28;20475;-81
2022/01/28 14:36:57;;;;;;;9.90;3.90;;;10.30;99.90;;;;;;5087732;28;20504;-81